Airfield :
LOGIN :

Register | Disclaimer

   EN    FR    IT 

 










Legend :    VFR   Marginal VFR   IFR   Intensive IFR   Very Intensive IFR
Visi :
Ceiling :
>= 8 km
>= 3000ft
5 to 8 km
1000 to 3000 ft
1500m to 5 km
500 to 1000 ft
800 to 1500m
200 to 500 ft
< 800m
< 200 ft
Symbols :   Thunderstorms  Fog  Heavy snow  Heavy precipitations  Wind > 20 kt
SIGMETs :     Misc.  Thunderstorms  Icing  Turbulence  Mountain Waves  Volcanic Ashes






- Airport Elevation : 353 ft
- IATA code : ZAG


LDZA - Zagreb Pleso

CURRENT METAR :
  • 291000Z 11004KT 060V150 CAVOK 07/M02 Q1024 NOSIG

EXPIRED METARs :
  • 290930Z 10004KT 040V150 CAVOK 07/M04 Q1025 NOSIG
  • 290900Z VRB02KT CAVOK 06/M04 Q1025 NOSIG
  • 290830Z VRB02KT CAVOK 05/M02 Q1025 NOSIG
  • 290800Z 11004KT 060V160 CAVOK 04/M01 Q1025 NOSIG
  • 290730Z VRB02KT CAVOK 03/M02 Q1025 NOSIG

TAF TAF LDZA
Valid from the 29 at 06:00 until the 30 at 06:00 UTC


290525Z 2906/3006 VRB02KT CAVOK TX14/2913Z TN00/2906Z
ATIS : +385 1 6-259-214



MET'MAP, your aeronautical weather chart ! - Copyright ORBIFLY December 2007 - Disclaimer

ORBIFLY MET'MAP TEAM :

Programming & Development : Alexandra Zaïnal
Original concept : Baudouin d'Aumeries
Technical & hardware support : Manuel Goepfert
Assistance : Marc-Olivier Méhu




SOURCES & CREDITS :

   NOAA